createdAt,value
2022-08-24T00:01:18.412Z,20.45
2022-08-24T00:03:45.954Z,20.48
2022-08-24T00:06:17.071Z,20.49
2022-08-24T00:08:44.332Z,20.49
2022-08-24T00:11:11.105Z,20.45
2022-08-24T00:13:39.493Z,20.44
2022-08-24T00:16:07.939Z,20.41
2022-08-24T00:18:35.083Z,20.40
2022-08-24T00:21:02.119Z,20.40
2022-08-24T00:23:29.230Z,20.38
2022-08-24T00:25:57.048Z,20.38
2022-08-24T00:28:24.111Z,20.36
2022-08-24T00:30:50.867Z,20.36
2022-08-24T00:33:17.689Z,20.36
2022-08-24T00:35:44.741Z,20.36
2022-08-24T00:38:11.369Z,20.36
2022-08-24T00:40:42.327Z,20.35
2022-08-24T00:43:10.609Z,20.36
2022-08-24T00:45:43.057Z,20.35
2022-08-24T00:48:17.120Z,20.35
2022-08-24T00:50:53.578Z,20.37
2022-08-24T00:53:42.552Z,20.36
2022-08-24T00:56:20.418Z,20.35
2022-08-24T00:58:58.798Z,20.35
2022-08-24T01:01:27.525Z,20.33
2022-08-24T01:03:57.243Z,20.33
2022-08-24T01:06:24.692Z,20.32
2022-08-24T01:08:54.139Z,20.31
2022-08-24T01:11:27.589Z,20.31
2022-08-24T01:14:02.057Z,20.31
2022-08-24T01:16:47.393Z,20.27
2022-08-24T01:19:29.869Z,20.25
2022-08-24T01:22:15.286Z,20.24
2022-08-24T01:24:42.983Z,20.25
2022-08-24T01:27:11.193Z,20.24
2022-08-24T01:29:40.696Z,20.25
2022-08-24T01:32:07.270Z,20.23
2022-08-24T01:34:33.792Z,20.24
2022-08-24T01:37:01.965Z,20.26
2022-08-24T01:39:33.417Z,20.25
2022-08-24T01:42:01.248Z,20.27
2022-08-24T01:44:33.451Z,20.28
2022-08-24T01:47:00.936Z,20.26
2022-08-24T01:49:36.373Z,20.27
2022-08-24T01:52:05.871Z,20.27
2022-08-24T01:54:33.296Z,20.26
2022-08-24T01:57:00.281Z,20.23
2022-08-24T01:59:27.750Z,20.22
2022-08-24T02:02:21.544Z,20.21
2022-08-24T02:04:48.353Z,20.23
2022-08-24T02:07:14.881Z,20.24
2022-08-24T02:09:41.795Z,20.20
2022-08-24T02:12:08.709Z,20.19
2022-08-24T02:14:35.933Z,20.18
2022-08-24T02:17:04.873Z,20.16
2022-08-24T02:19:31.747Z,20.15
2022-08-24T02:21:59.960Z,20.17
2022-08-24T02:24:29.875Z,20.14
2022-08-24T02:26:57.112Z,20.12
2022-08-24T02:29:24.280Z,20.13
2022-08-24T02:31:51.245Z,20.10
2022-08-24T02:34:17.881Z,20.07
2022-08-24T02:36:44.721Z,20.04
2022-08-24T02:39:11.251Z,20.05
2022-08-24T02:41:37.926Z,20.06
2022-08-24T02:44:05.940Z,20.06
2022-08-24T02:46:32.972Z,20.04
2022-08-24T02:49:11.298Z,20.06
2022-08-24T02:51:44.548Z,20.06
2022-08-24T02:54:17.013Z,20.05
2022-08-24T02:56:44.030Z,19.99
2022-08-24T02:59:10.957Z,19.97
2022-08-24T03:01:37.593Z,19.97
2022-08-24T03:04:04.996Z,19.93
2022-08-24T03:06:32.151Z,19.92
2022-08-24T03:08:58.804Z,19.93
2022-08-24T03:11:27.912Z,19.91
2022-08-24T03:13:58.013Z,19.93
2022-08-24T03:16:26.227Z,19.91
2022-08-24T03:18:53.049Z,19.95
2022-08-24T03:21:20.174Z,19.96
2022-08-24T03:23:47.155Z,19.97
2022-08-24T03:26:13.783Z,19.98
2022-08-24T03:28:40.801Z,20.01
2022-08-24T03:31:07.292Z,19.98
2022-08-24T03:33:33.895Z,19.97
2022-08-24T03:36:00.353Z,19.94
2022-08-24T03:38:27.836Z,19.91
2022-08-24T03:40:54.286Z,19.92
2022-08-24T03:43:40.027Z,19.91
2022-08-24T03:46:08.249Z,19.91
2022-08-24T03:48:36.096Z,19.89
2022-08-24T03:51:03.081Z,19.88
2022-08-24T03:53:29.664Z,19.86
2022-08-24T03:55:56.254Z,19.84
2022-08-24T03:58:22.696Z,19.80
2022-08-24T04:00:49.314Z,19.77
2022-08-24T04:03:15.877Z,19.79
2022-08-24T04:05:42.455Z,19.79
2022-08-24T04:08:09.047Z,19.74
2022-08-24T04:10:35.606Z,19.74
2022-08-24T04:13:02.532Z,19.75
2022-08-24T04:15:31.576Z,19.78
2022-08-24T04:17:58.329Z,19.80
2022-08-24T04:20:25.218Z,19.77
2022-08-24T04:22:51.971Z,19.78
2022-08-24T04:25:24.707Z,19.78
2022-08-24T04:27:51.585Z,19.79
2022-08-24T04:30:18.183Z,19.79
2022-08-24T04:32:44.943Z,19.80
2022-08-24T04:35:12.477Z,19.82
2022-08-24T04:37:38.911Z,19.86
2022-08-24T04:40:07.628Z,19.87
2022-08-24T04:42:34.960Z,19.88
2022-08-24T04:45:02.307Z,19.91
2022-08-24T04:47:28.814Z,19.94
2022-08-24T04:49:55.232Z,19.98
2022-08-24T04:52:21.845Z,20.05
2022-08-24T04:54:48.488Z,20.14
2022-08-24T04:57:18.196Z,20.30
2022-08-24T04:59:45.965Z,20.47
2022-08-24T05:02:12.809Z,20.55
2022-08-24T05:04:39.713Z,20.67
2022-08-24T05:07:06.120Z,20.77
2022-08-24T05:09:32.749Z,20.85
2022-08-24T05:12:00.783Z,20.86
2022-08-24T05:14:29.142Z,20.86
2022-08-24T05:16:56.099Z,20.96
2022-08-24T05:19:23.702Z,21.31
2022-08-24T05:21:50.886Z,21.71
2022-08-24T05:24:18.989Z,22.12
2022-08-24T05:26:45.790Z,22.12
2022-08-24T05:29:12.450Z,21.97
2022-08-24T05:31:43.237Z,21.85
2022-08-24T05:34:10.186Z,21.65
2022-08-24T05:36:38.648Z,21.64
2022-08-24T05:39:11.292Z,21.67
2022-08-24T05:41:43.960Z,21.76
2022-08-24T05:44:13.404Z,21.77
2022-08-24T05:46:40.396Z,21.78
2022-08-24T05:49:07.704Z,21.79
2022-08-24T05:51:35.447Z,21.76
2022-08-24T05:54:04.478Z,21.73
2022-08-24T05:56:32.116Z,21.67
2022-08-24T05:58:58.859Z,21.59
2022-08-24T06:01:26.687Z,21.48
2022-08-24T06:03:54.834Z,21.42
2022-08-24T06:06:23.345Z,21.32
2022-08-24T06:08:52.220Z,21.25
2022-08-24T06:11:30.075Z,21.21
2022-08-24T06:14:00.592Z,21.28
2022-08-24T06:16:27.493Z,21.34
2022-08-24T06:18:54.297Z,21.42
2022-08-24T06:21:24.201Z,21.40
2022-08-24T06:23:51.061Z,21.46
2022-08-24T06:26:38.237Z,21.47
2022-08-24T06:29:06.687Z,21.43
2022-08-24T06:31:42.011Z,21.39
2022-08-24T06:34:10.665Z,21.41
2022-08-24T06:36:37.720Z,21.34
2022-08-24T06:39:08.610Z,21.26
2022-08-24T06:41:38.315Z,21.28
2022-08-24T06:44:06.452Z,21.33
2022-08-24T06:46:33.319Z,21.34
2022-08-24T06:49:00.381Z,21.30
2022-08-24T06:51:26.872Z,21.27
2022-08-24T06:53:57.990Z,21.26
2022-08-24T06:56:24.570Z,21.40
2022-08-24T06:58:51.411Z,21.55
2022-08-24T07:01:20.553Z,21.46
2022-08-24T07:03:47.422Z,21.41
2022-08-24T07:06:17.551Z,21.36
2022-08-24T07:08:44.443Z,21.31
2022-08-24T07:11:14.069Z,21.22
2022-08-24T07:13:41.576Z,21.26
2022-08-24T07:16:09.469Z,21.30
2022-08-24T07:18:36.637Z,21.35
2022-08-24T07:21:04.607Z,21.32
2022-08-24T07:23:41.390Z,21.32
2022-08-24T07:26:22.331Z,21.32
2022-08-24T07:29:04.311Z,21.55
2022-08-24T07:31:36.387Z,21.67
2022-08-24T07:34:05.098Z,21.95
2022-08-24T07:36:31.727Z,22.05
2022-08-24T07:38:58.403Z,22.05
2022-08-24T07:44:14.990Z,21.79
2022-08-24T07:46:41.884Z,21.93
2022-08-24T07:49:11.964Z,22.18
2022-08-24T07:51:47.127Z,22.46
2022-08-24T07:54:14.933Z,22.41
2022-08-24T07:56:42.397Z,22.48
2022-08-24T07:59:13.068Z,22.65
2022-08-24T08:01:41.638Z,22.83
2022-08-24T08:04:09.280Z,22.87
2022-08-24T08:06:36.393Z,22.90
2022-08-24T08:09:04.795Z,22.94
2022-08-24T08:11:31.829Z,22.79
2022-08-24T08:13:58.651Z,22.77
2022-08-24T08:16:25.713Z,22.58
2022-08-24T08:19:09.366Z,22.52
2022-08-24T08:22:09.114Z,22.49
2022-08-24T08:24:37.828Z,22.59
2022-08-24T08:27:05.241Z,22.73
2022-08-24T08:29:33.515Z,22.97
2022-08-24T08:32:00.538Z,23.10
2022-08-24T08:34:27.733Z,23.16
2022-08-24T08:36:54.566Z,23.25
2022-08-24T08:39:22.898Z,23.21
2022-08-24T08:42:14.392Z,23.04
2022-08-24T08:45:01.901Z,23.16
2022-08-24T08:48:10.206Z,23.49
2022-08-24T08:51:16.773Z,23.45
2022-08-24T08:54:21.923Z,23.46
2022-08-24T08:57:07.435Z,23.64
2022-08-24T09:00:01.072Z,23.73
2022-08-24T09:02:49.544Z,23.76
2022-08-24T09:05:18.577Z,23.92
2022-08-24T09:07:54.915Z,24.06
2022-08-24T09:10:28.189Z,24.14
2022-08-24T09:13:19.327Z,24.15
2022-08-24T09:15:55.918Z,24.12
2022-08-24T09:18:31.880Z,24.19
2022-08-24T09:21:13.617Z,24.18
2022-08-24T09:24:08.231Z,24.34
2022-08-24T09:26:58.925Z,24.50
2022-08-24T09:30:09.417Z,24.51
2022-08-24T09:32:55.279Z,24.58
2022-08-24T09:35:36.946Z,24.70
2022-08-24T09:38:17.514Z,24.79
2022-08-24T09:41:21.712Z,24.95
2022-08-24T09:44:16.004Z,24.86
2022-08-24T09:46:57.572Z,24.76
2022-08-24T09:49:46.776Z,24.89
2022-08-24T09:52:34.836Z,25.02
2022-08-24T09:55:23.233Z,25.30
2022-08-24T09:58:02.025Z,25.31
2022-08-24T10:00:37.057Z,25.27
2022-08-24T10:03:36.480Z,25.39
2022-08-24T10:06:13.678Z,25.38
2022-08-24T10:09:10.492Z,25.61
2022-08-24T10:11:59.184Z,25.66
2022-08-24T10:14:31.369Z,25.43
2022-08-24T10:17:42.639Z,25.14
2022-08-24T10:20:25.506Z,24.97
2022-08-24T10:23:14.283Z,24.90
2022-08-24T10:26:18.195Z,24.83
2022-08-24T10:29:05.195Z,24.77
2022-08-24T10:31:40.366Z,24.76
2022-08-24T10:34:51.075Z,24.77
2022-08-24T10:37:34.820Z,24.86
2022-08-24T10:40:12.573Z,25.04
2022-08-24T10:43:13.173Z,25.35
2022-08-24T10:45:58.515Z,25.24
2022-08-24T10:48:33.479Z,25.34
2022-08-24T10:51:23.270Z,25.38
2022-08-24T10:53:53.069Z,25.35
2022-08-24T10:56:29.256Z,25.39
2022-08-24T10:59:18.200Z,25.49
2022-08-24T11:02:03.280Z,25.36
2022-08-24T11:04:39.089Z,25.29
2022-08-24T11:07:14.639Z,25.37
2022-08-24T11:09:56.400Z,25.67
2022-08-24T11:12:26.504Z,25.82
2022-08-24T11:14:56.880Z,25.86
2022-08-24T11:17:27.046Z,26.02
2022-08-24T11:19:54.529Z,25.83
2022-08-24T11:22:40.928Z,25.72
2022-08-24T11:25:19.127Z,25.79
2022-08-24T11:27:50.312Z,25.88
2022-08-24T11:30:19.378Z,25.89
2022-08-24T11:32:57.741Z,25.80
2022-08-24T11:35:42.085Z,25.81
2022-08-24T11:38:16.503Z,25.87
2022-08-24T11:41:07.743Z,25.93
2022-08-24T11:43:43.605Z,25.87
2022-08-24T11:46:13.673Z,25.84
2022-08-24T11:49:23.542Z,25.89
2022-08-24T11:52:21.578Z,25.78
2022-08-24T11:54:47.855Z,25.71
2022-08-24T11:57:32.724Z,25.67
2022-08-24T12:00:15.150Z,25.63
2022-08-24T12:03:02.002Z,25.64
2022-08-24T12:05:56.628Z,25.68
2022-08-24T12:08:45.464Z,25.69
2022-08-24T12:11:20.267Z,25.66
2022-08-24T12:14:02.110Z,25.61
2022-08-24T12:16:51.003Z,25.63
2022-08-24T12:19:25.266Z,25.85
2022-08-24T12:21:57.205Z,26.21
2022-08-24T12:24:33.032Z,26.30
2022-08-24T12:27:10.141Z,26.43
2022-08-24T12:29:44.107Z,26.45
2022-08-24T12:32:18.433Z,26.24
2022-08-24T12:35:06.168Z,26.11
2022-08-24T12:37:35.497Z,26.02
2022-08-24T12:40:08.093Z,25.96
2022-08-24T12:42:55.517Z,25.94
2022-08-24T12:45:23.811Z,25.92
2022-08-24T12:47:59.640Z,25.90
2022-08-24T12:50:33.207Z,25.91
2022-08-24T12:53:21.329Z,25.96
2022-08-24T12:56:04.924Z,26.01
2022-08-24T12:58:53.896Z,25.98
2022-08-24T13:01:25.523Z,26.03
2022-08-24T13:04:23.079Z,26.28
2022-08-24T13:06:59.880Z,26.35
2022-08-24T13:09:33.861Z,26.34
2022-08-24T13:12:38.604Z,26.42
2022-08-24T13:15:20.444Z,26.39
2022-08-24T13:17:49.558Z,26.46
2022-08-24T13:20:49.893Z,26.53
2022-08-24T13:23:18.339Z,26.68
2022-08-24T13:25:50.843Z,26.79
2022-08-24T13:28:20.120Z,26.83
2022-08-24T13:30:52.967Z,26.85
2022-08-24T13:34:01.550Z,26.90
2022-08-24T13:36:30.703Z,26.93
2022-08-24T13:39:10.514Z,26.94
2022-08-24T13:41:43.424Z,26.83
2022-08-24T13:44:33.844Z,26.74
2022-08-24T13:47:24.024Z,26.58
2022-08-24T13:50:09.521Z,26.46
2022-08-24T13:53:25.656Z,26.40
2022-08-24T13:56:11.835Z,26.35
2022-08-24T13:58:59.811Z,26.31
2022-08-24T14:01:30.511Z,26.37
2022-08-24T14:04:18.713Z,26.53
2022-08-24T14:06:59.211Z,26.62
2022-08-24T14:09:55.967Z,26.69
2022-08-24T14:12:38.076Z,26.74
2022-08-24T14:16:11.323Z,26.82
2022-08-24T14:18:53.621Z,26.87
2022-08-24T14:21:32.849Z,26.76
2022-08-24T14:24:10.272Z,26.61
2022-08-24T14:26:37.534Z,26.48
2022-08-24T14:29:19.437Z,26.38
2022-08-24T14:31:58.575Z,26.32
2022-08-24T14:34:34.291Z,26.25
2022-08-24T14:37:13.022Z,26.18
2022-08-24T14:39:48.787Z,26.12
2022-08-24T14:42:32.339Z,26.06
2022-08-24T14:45:09.814Z,26.01
2022-08-24T14:47:45.527Z,25.98
2022-08-24T14:50:14.458Z,25.96
2022-08-24T14:53:10.036Z,25.93
2022-08-24T14:55:41.539Z,26.01
2022-08-24T14:58:29.004Z,26.11
2022-08-24T15:01:14.282Z,26.23
2022-08-24T15:03:52.994Z,26.39
2022-08-24T15:06:28.495Z,26.54
2022-08-24T15:09:07.498Z,26.52
2022-08-24T15:11:38.784Z,26.53
2022-08-24T15:14:11.292Z,26.55
2022-08-24T15:16:54.141Z,26.58
2022-08-24T15:19:27.143Z,26.59
2022-08-24T15:22:03.341Z,26.60
2022-08-24T15:24:47.297Z,26.65
2022-08-24T15:27:22.852Z,26.71
2022-08-24T15:29:54.172Z,26.75
2022-08-24T15:32:22.849Z,26.80
2022-08-24T15:34:57.764Z,26.83
2022-08-24T15:37:26.870Z,26.78
2022-08-24T15:39:53.289Z,26.79
2022-08-24T15:42:20.490Z,26.78
2022-08-24T15:44:49.595Z,26.80
2022-08-24T15:47:18.817Z,26.73
2022-08-24T15:49:54.849Z,26.71
2022-08-24T15:52:43.261Z,26.66
2022-08-24T15:55:40.752Z,26.61
2022-08-24T15:58:26.153Z,26.57
2022-08-24T16:01:18.165Z,26.50
2022-08-24T16:03:52.167Z,26.34
2022-08-24T16:06:38.203Z,26.26
2022-08-24T16:09:07.639Z,26.15
2022-08-24T16:11:41.783Z,26.02
2022-08-24T16:14:29.674Z,25.89
2022-08-24T16:16:58.359Z,25.80
2022-08-24T16:19:30.567Z,25.71
2022-08-24T16:22:01.809Z,25.65
2022-08-24T16:24:35.520Z,25.58
2022-08-24T16:27:12.363Z,25.52
2022-08-24T16:29:38.938Z,25.51
2022-08-24T16:32:12.901Z,25.50
2022-08-24T16:34:52.403Z,25.46
2022-08-24T16:37:20.158Z,25.37
2022-08-24T16:39:48.323Z,25.29
2022-08-24T16:42:27.180Z,25.25
2022-08-24T16:44:54.822Z,25.22
2022-08-24T16:47:23.055Z,25.16
2022-08-24T16:49:50.892Z,25.10
2022-08-24T16:52:18.430Z,25.05
2022-08-24T16:54:46.082Z,25.01
2022-08-24T16:57:20.458Z,24.98
2022-08-24T16:59:48.160Z,24.94
2022-08-24T17:02:17.127Z,24.89
2022-08-24T17:04:44.109Z,24.84
2022-08-24T17:07:15.134Z,24.80
2022-08-24T17:09:45.714Z,24.75
2022-08-24T17:12:12.376Z,24.72
2022-08-24T17:14:39.044Z,24.69
2022-08-24T17:17:12.902Z,24.66
2022-08-24T17:19:40.215Z,24.63
2022-08-24T17:22:14.343Z,24.59
2022-08-24T17:24:44.043Z,24.57
2022-08-24T17:27:12.443Z,24.55
2022-08-24T17:29:39.802Z,24.51
2022-08-24T17:32:06.329Z,24.48
2022-08-24T17:34:33.269Z,24.45
2022-08-24T17:37:00.833Z,24.42
2022-08-24T17:39:27.639Z,24.40
2022-08-24T17:41:56.483Z,24.36
2022-08-24T17:44:26.469Z,24.34
2022-08-24T17:46:56.917Z,24.30
2022-08-24T17:49:23.541Z,24.28
2022-08-24T17:51:50.049Z,24.24
2022-08-24T17:54:17.053Z,24.22
2022-08-24T17:56:45.913Z,24.17
2022-08-24T17:59:24.115Z,24.11
2022-08-24T18:01:57.905Z,24.06
2022-08-24T18:04:29.515Z,24.01
2022-08-24T18:07:02.675Z,23.95
2022-08-24T18:09:32.915Z,23.91
2022-08-24T18:12:02.962Z,23.87
2022-08-24T18:14:30.282Z,23.84
2022-08-24T18:17:00.633Z,23.83
2022-08-24T18:19:27.466Z,23.77
2022-08-24T18:21:53.822Z,23.74
2022-08-24T18:24:20.461Z,23.71
2022-08-24T18:26:48.230Z,23.69
2022-08-24T18:29:17.410Z,23.66
2022-08-24T18:31:44.336Z,23.59
2022-08-24T18:34:16.558Z,23.49
2022-08-24T18:36:42.962Z,23.40
2022-08-24T18:39:09.445Z,23.33
2022-08-24T18:41:38.761Z,23.29
2022-08-24T18:44:07.495Z,23.27
2022-08-24T18:46:34.358Z,23.24
2022-08-24T18:49:01.829Z,23.23
2022-08-24T18:51:34.332Z,23.21
2022-08-24T18:54:10.083Z,23.23
2022-08-24T18:56:37.102Z,23.25
2022-08-24T18:59:04.458Z,23.23
2022-08-24T19:01:52.848Z,23.20
2022-08-24T19:04:19.400Z,23.15
2022-08-24T19:06:50.526Z,23.16
2022-08-24T19:09:17.412Z,23.17
2022-08-24T19:11:44.333Z,23.18
2022-08-24T19:14:12.103Z,23.16
2022-08-24T19:16:39.796Z,23.12
2022-08-24T19:19:06.844Z,23.09
2022-08-24T19:21:35.982Z,23.07
2022-08-24T19:24:03.963Z,23.09
2022-08-24T19:26:31.157Z,23.09
2022-08-24T19:28:58.876Z,23.09
2022-08-24T19:31:27.730Z,23.09
2022-08-24T19:33:59.238Z,23.12
2022-08-24T19:36:31.274Z,23.13
2022-08-24T19:38:58.624Z,23.14
2022-08-24T19:41:30.306Z,23.14
2022-08-24T19:44:27.888Z,23.12
2022-08-24T19:46:55.278Z,23.10
2022-08-24T19:49:22.280Z,23.11
2022-08-24T19:51:50.345Z,23.13
2022-08-24T19:54:17.475Z,23.13
2022-08-24T19:56:44.774Z,23.12
2022-08-24T19:59:26.103Z,23.09
2022-08-24T20:01:52.989Z,23.03
2022-08-24T20:04:19.501Z,22.97
2022-08-24T20:06:46.367Z,22.94
2022-08-24T20:09:13.076Z,22.94
2022-08-24T20:11:40.298Z,22.92
2022-08-24T20:14:07.036Z,22.89
2022-08-24T20:16:43.521Z,22.87
2022-08-24T20:19:11.227Z,22.88
2022-08-24T20:21:38.268Z,22.89
2022-08-24T20:24:05.831Z,22.91
2022-08-24T20:26:39.831Z,22.90
2022-08-24T20:29:06.688Z,22.89
2022-08-24T20:31:33.310Z,22.89
2022-08-24T20:34:00.028Z,22.87
2022-08-24T20:36:38.865Z,22.84
2022-08-24T20:39:09.166Z,22.80
2022-08-24T20:41:36.690Z,22.78
2022-08-24T20:44:03.899Z,22.74
2022-08-24T20:46:31.335Z,22.72
2022-08-24T20:48:58.764Z,22.70
2022-08-24T20:51:26.113Z,22.70
2022-08-24T20:53:53.422Z,22.68
2022-08-24T20:56:33.146Z,22.66
2022-08-24T20:59:09.209Z,22.65
2022-08-24T21:01:37.042Z,22.62
2022-08-24T21:04:05.477Z,22.61
2022-08-24T21:06:33.685Z,22.61
2022-08-24T21:09:00.440Z,22.62
2022-08-24T21:11:26.870Z,22.62
2022-08-24T21:13:53.353Z,22.62
2022-08-24T21:16:20.261Z,22.62
2022-08-24T21:18:47.291Z,22.62
2022-08-24T21:21:14.258Z,22.58
2022-08-24T21:23:40.923Z,22.56
2022-08-24T21:26:11.215Z,22.55
2022-08-24T21:28:41.358Z,22.54
2022-08-24T21:31:08.398Z,22.54
2022-08-24T21:33:53.258Z,22.53
2022-08-24T21:36:22.825Z,22.48
2022-08-24T21:38:51.426Z,22.47
2022-08-24T21:41:18.341Z,22.45
2022-08-24T21:43:45.013Z,22.44
2022-08-24T21:46:11.966Z,22.44
2022-08-24T21:48:39.224Z,22.41
2022-08-24T21:51:06.168Z,22.42
2022-08-24T21:53:32.746Z,22.45
2022-08-24T21:56:01.801Z,22.47
2022-08-24T21:58:28.939Z,22.48
2022-08-24T22:00:58.870Z,22.47
2022-08-24T22:03:27.540Z,22.46
2022-08-24T22:05:59.210Z,22.46
2022-08-24T22:08:26.252Z,22.46
2022-08-24T22:10:54.830Z,22.44
2022-08-24T22:13:21.269Z,22.42
2022-08-24T22:15:47.846Z,22.41
2022-08-24T22:18:15.264Z,22.40
2022-08-24T22:20:41.725Z,22.37
2022-08-24T22:23:08.262Z,22.33
2022-08-24T22:25:34.818Z,22.28
2022-08-24T22:28:01.322Z,22.22
2022-08-24T22:30:27.813Z,22.17
2022-08-24T22:32:54.238Z,22.13
2022-08-24T22:35:20.676Z,22.07
2022-08-24T22:37:47.340Z,22.02
2022-08-24T22:40:14.314Z,22.00
2022-08-24T22:42:40.938Z,21.95
2022-08-24T22:45:09.209Z,21.91
2022-08-24T22:47:36.679Z,21.86
2022-08-24T22:50:05.987Z,21.85
2022-08-24T22:52:32.341Z,21.83
2022-08-24T22:54:58.784Z,21.83
2022-08-24T22:57:25.387Z,21.82
2022-08-24T22:59:53.254Z,21.78
2022-08-24T23:02:20.492Z,21.77
2022-08-24T23:04:49.985Z,21.73
2022-08-24T23:07:16.994Z,21.71
2022-08-24T23:09:45.417Z,21.66
2022-08-24T23:12:21.799Z,21.63
2022-08-24T23:14:50.190Z,21.59
2022-08-24T23:17:17.847Z,21.55
2022-08-24T23:20:00.042Z,21.52
2022-08-24T23:22:31.823Z,21.48
2022-08-24T23:24:59.124Z,21.47
2022-08-24T23:27:32.782Z,21.45
2022-08-24T23:30:07.848Z,21.45
2022-08-24T23:32:34.289Z,21.44
2022-08-24T23:35:00.950Z,21.46
2022-08-24T23:37:27.924Z,21.47
2022-08-24T23:39:54.438Z,21.46
2022-08-24T23:42:20.963Z,21.46
2022-08-24T23:44:47.465Z,21.42
2022-08-24T23:47:13.900Z,21.42
2022-08-24T23:49:41.113Z,21.41
2022-08-24T23:52:07.529Z,21.40
2022-08-24T23:54:34.400Z,21.40
2022-08-24T23:57:03.379Z,21.41
2022-08-24T23:59:29.793Z,21.40
